sensor_id;sensor_type;location;lat;lon;timestamp;temperature;humidity
5828;DHT22;42583;50.240;8.444;2022-07-10T00:06:28;14.80;92.30
5828;DHT22;42583;50.240;8.444;2022-07-10T00:21:29;14.70;92.50
5828;DHT22;42583;50.240;8.444;2022-07-10T00:36:29;14.60;92.30
5828;DHT22;42583;50.240;8.444;2022-07-10T00:51:30;14.40;92.40
5828;DHT22;42583;50.240;8.444;2022-07-10T01:06:31;14.30;92.50
5828;DHT22;42583;50.240;8.444;2022-07-10T01:21:34;14.10;92.50
5828;DHT22;42583;50.240;8.444;2022-07-10T01:36:36;14.00;92.80
5828;DHT22;42583;50.240;8.444;2022-07-10T01:51:37;13.90;92.70
5828;DHT22;42583;50.240;8.444;2022-07-10T02:06:38;13.60;92.40
5828;DHT22;42583;50.240;8.444;2022-07-10T02:21:38;13.40;93.30
5828;DHT22;42583;50.240;8.444;2022-07-10T02:36:39;13.20;93.10
5828;DHT22;42583;50.240;8.444;2022-07-10T02:51:39;12.90;93.00
5828;DHT22;42583;50.240;8.444;2022-07-10T03:06:40;12.80;92.90
5828;DHT22;42583;50.240;8.444;2022-07-10T03:21:41;12.60;93.10
5828;DHT22;42583;50.240;8.444;2022-07-10T03:36:42;12.30;93.30
5828;DHT22;42583;50.240;8.444;2022-07-10T03:51:42;12.20;93.30
5828;DHT22;42583;50.240;8.444;2022-07-10T04:06:43;12.10;93.10
5828;DHT22;42583;50.240;8.444;2022-07-10T04:21:43;12.00;93.40
5828;DHT22;42583;50.240;8.444;2022-07-10T04:36:45;11.90;93.50
5828;DHT22;42583;50.240;8.444;2022-07-10T04:51:46;12.10;93.50
5828;DHT22;42583;50.240;8.444;2022-07-10T05:06:46;12.20;93.30
5828;DHT22;42583;50.240;8.444;2022-07-10T05:21:47;12.50;92.80
5828;DHT22;42583;50.240;8.444;2022-07-10T05:36:47;12.80;92.10
5828;DHT22;42583;50.240;8.444;2022-07-10T05:51:48;13.00;91.30
5828;DHT22;42583;50.240;8.444;2022-07-10T06:06:48;13.30;90.30
5828;DHT22;42583;50.240;8.444;2022-07-10T06:21:49;13.50;88.30
5828;DHT22;42583;50.240;8.444;2022-07-10T06:37:10;13.80;87.30
5828;DHT22;42583;50.240;8.444;2022-07-10T06:52:11;14.20;85.50
5828;DHT22;42583;50.240;8.444;2022-07-10T07:07:13;14.40;84.10
5828;DHT22;42583;50.240;8.444;2022-07-10T07:22:13;14.70;84.40
5828;DHT22;42583;50.240;8.444;2022-07-10T07:37:39;14.90;83.00
5828;DHT22;42583;50.240;8.444;2022-07-10T07:52:40;15.70;82.60
5828;DHT22;42583;50.240;8.444;2022-07-10T08:07:43;16.70;75.30
5828;DHT22;42583;50.240;8.444;2022-07-10T08:22:45;16.70;72.70
5828;DHT22;42583;50.240;8.444;2022-07-10T08:37:46;16.30;72.90
5828;DHT22;42583;50.240;8.444;2022-07-10T08:53:04;16.50;73.30
5828;DHT22;42583;50.240;8.444;2022-07-10T09:08:27;16.40;73.00
5828;DHT22;42583;50.240;8.444;2022-07-10T09:23:30;16.60;74.30
5828;DHT22;42583;50.240;8.444;2022-07-10T09:53:42;18.50;66.20
5828;DHT22;42583;50.240;8.444;2022-07-10T10:23:56;17.00;64.30
5828;DHT22;42583;50.240;8.444;2022-07-10T10:54:04;19.20;61.80
5828;DHT22;42583;50.240;8.444;2022-07-10T11:09:25;19.70;58.90
5828;DHT22;42583;50.240;8.444;2022-07-10T11:24:48;19.50;57.90
5828;DHT22;42583;50.240;8.444;2022-07-10T11:39:51;19.90;57.00
5828;DHT22;42583;50.240;8.444;2022-07-10T11:54:52;19.70;55.50
5828;DHT22;42583;50.240;8.444;2022-07-10T12:09:53;20.10;55.20
5828;DHT22;42583;50.240;8.444;2022-07-10T12:24:54;21.10;53.60
5828;DHT22;42583;50.240;8.444;2022-07-10T12:39:54;20.70;53.60
5828;DHT22;42583;50.240;8.444;2022-07-10T13:10:10;21.30;53.10
5828;DHT22;42583;50.240;8.444;2022-07-10T13:25:11;21.80;52.70
5828;DHT22;42583;50.240;8.444;2022-07-10T13:40:13;21.60;52.80
5828;DHT22;42583;50.240;8.444;2022-07-10T13:55:13;21.00;52.40
5828;DHT22;42583;50.240;8.444;2022-07-10T14:10:14;21.30;53.20
5828;DHT22;42583;50.240;8.444;2022-07-10T14:25:16;21.00;52.80
5828;DHT22;42583;50.240;8.444;2022-07-10T14:40:17;20.10;53.90
5828;DHT22;42583;50.240;8.444;2022-07-10T14:55:17;19.40;55.20
5828;DHT22;42583;50.240;8.444;2022-07-10T15:10:18;19.30;56.20
5828;DHT22;42583;50.240;8.444;2022-07-10T15:25:19;19.60;57.20
5828;DHT22;42583;50.240;8.444;2022-07-10T15:40:20;19.50;57.20
5828;DHT22;42583;50.240;8.444;2022-07-10T15:55:21;18.90;58.10
5828;DHT22;42583;50.240;8.444;2022-07-10T16:10:21;18.60;59.90
5828;DHT22;42583;50.240;8.444;2022-07-10T16:25:22;18.90;60.30
5828;DHT22;42583;50.240;8.444;2022-07-10T16:40:42;18.90;61.70
5828;DHT22;42583;50.240;8.444;2022-07-10T16:55:43;18.60;62.80
5828;DHT22;42583;50.240;8.444;2022-07-10T17:10:44;18.50;64.00
5828;DHT22;42583;50.240;8.444;2022-07-10T17:25:44;18.10;64.90
5828;DHT22;42583;50.240;8.444;2022-07-10T17:40:45;17.80;66.90
5828;DHT22;42583;50.240;8.444;2022-07-10T17:55:46;17.50;68.80
5828;DHT22;42583;50.240;8.444;2022-07-10T18:10:47;17.30;70.80
5828;DHT22;42583;50.240;8.444;2022-07-10T18:25:47;16.90;72.70
5828;DHT22;42583;50.240;8.444;2022-07-10T18:40:48;16.70;74.30
5828;DHT22;42583;50.240;8.444;2022-07-10T18:55:52;16.50;75.90
5828;DHT22;42583;50.240;8.444;2022-07-10T19:10:53;16.20;79.80
5828;DHT22;42583;50.240;8.444;2022-07-10T19:25:54;15.90;84.80
5828;DHT22;42583;50.240;8.444;2022-07-10T19:40:54;15.70;90.40
5828;DHT22;42583;50.240;8.444;2022-07-10T19:55:55;15.50;93.00
5828;DHT22;42583;50.240;8.444;2022-07-10T20:10:55;15.30;93.60
5828;DHT22;42583;50.240;8.444;2022-07-10T20:25:56;15.30;94.90
5828;DHT22;42583;50.240;8.444;2022-07-10T20:40:56;15.20;95.70
5828;DHT22;42583;50.240;8.444;2022-07-10T20:55:57;15.20;96.70
5828;DHT22;42583;50.240;8.444;2022-07-10T21:10:58;15.10;97.30
5828;DHT22;42583;50.240;8.444;2022-07-10T21:25:58;15.10;97.50
5828;DHT22;42583;50.240;8.444;2022-07-10T21:40:59;15.10;98.30
5828;DHT22;42583;50.240;8.444;2022-07-10T21:55:59;15.10;97.90
5828;DHT22;42583;50.240;8.444;2022-07-10T22:11:00;15.20;98.40
5828;DHT22;42583;50.240;8.444;2022-07-10T22:26:01;15.20;98.10
5828;DHT22;42583;50.240;8.444;2022-07-10T22:41:01;15.10;98.60
5828;DHT22;42583;50.240;8.444;2022-07-10T22:56:02;15.10;99.00
5828;DHT22;42583;50.240;8.444;2022-07-10T23:11:03;15.10;99.00
5828;DHT22;42583;50.240;8.444;2022-07-10T23:26:04;15.10;99.40
5828;DHT22;42583;50.240;8.444;2022-07-10T23:41:04;15.10;99.10
5828;DHT22;42583;50.240;8.444;2022-07-10T23:56:05;15.10;98.90
